createdAt,value
2018-06-13T00:01:09.625Z,5.33
2018-06-13T00:03:38.963Z,4.30
2018-06-13T00:06:08.823Z,5.00
2018-06-13T00:08:38.180Z,4.70
2018-06-13T00:11:07.865Z,4.57
2018-06-13T00:13:37.168Z,4.57
2018-06-13T00:16:06.545Z,4.90
2018-06-13T00:18:35.852Z,4.80
2018-06-13T00:21:05.194Z,4.40
2018-06-13T00:23:34.503Z,4.97
2018-06-13T00:26:03.815Z,5.17
2018-06-13T00:28:32.878Z,4.90
2018-06-13T00:31:02.175Z,5.40
2018-06-13T00:33:31.493Z,4.97
2018-06-13T00:36:00.792Z,5.10
2018-06-13T00:38:30.103Z,5.03
2018-06-13T00:40:59.415Z,5.03
2018-06-13T00:43:28.488Z,5.37
2018-06-13T00:45:57.775Z,5.03
2018-06-13T00:48:27.100Z,5.37
2018-06-13T00:50:56.396Z,5.90
2018-06-13T00:53:25.692Z,5.60
2018-06-13T00:56:11.864Z,6.00
2018-06-13T00:58:41.183Z,5.58
2018-06-13T01:01:10.464Z,5.77
2018-06-13T01:03:39.778Z,5.63
2018-06-13T01:06:09.768Z,5.90
2018-06-13T01:08:39.073Z,5.33
2018-06-13T01:11:08.402Z,6.15
2018-06-13T01:13:37.696Z,6.53
2018-06-13T01:16:06.987Z,5.80
2018-06-13T01:18:36.284Z,5.90
2018-06-13T01:21:05.600Z,6.47
2018-06-13T01:23:35.025Z,6.20
2018-06-13T01:26:04.110Z,6.80
2018-06-13T01:28:33.214Z,5.73
2018-06-13T01:31:02.569Z,5.80
2018-06-13T01:33:31.937Z,6.00
2018-06-13T01:36:01.293Z,6.37
2018-06-13T01:38:30.675Z,5.67
2018-06-13T01:41:00.035Z,6.30
2018-06-13T01:43:29.393Z,6.73
2018-06-13T01:45:58.760Z,6.33
2018-06-13T01:48:28.132Z,6.75
2018-06-13T01:50:58.554Z,6.80
2018-06-13T01:53:29.552Z,6.23
2018-06-13T01:55:58.936Z,6.17
2018-06-13T01:58:28.296Z,6.80
2018-06-13T02:00:57.639Z,6.53
2018-06-13T02:03:26.996Z,7.10
2018-06-13T02:05:56.349Z,7.43
2018-06-13T02:08:25.712Z,6.80
2018-06-13T02:10:55.072Z,6.13
2018-06-13T02:13:24.432Z,7.43
2018-06-13T02:15:53.798Z,7.30
2018-06-13T02:18:23.169Z,7.25
2018-06-13T02:20:52.517Z,6.27
2018-06-13T02:23:21.888Z,6.73
2018-06-13T02:25:51.245Z,7.23
2018-06-13T02:28:20.603Z,6.83
2018-06-13T02:30:49.977Z,6.40
2018-06-13T02:33:19.352Z,7.37
2018-06-13T02:35:48.701Z,7.07
2018-06-13T02:38:17.807Z,7.15
2018-06-13T02:40:46.914Z,7.10
2018-06-13T02:43:16.266Z,7.50
2018-06-13T02:45:45.622Z,7.17
2018-06-13T02:48:14.994Z,6.87
2018-06-13T02:50:44.376Z,7.17
2018-06-13T02:53:13.724Z,7.30
2018-06-13T02:55:43.087Z,7.00
2018-06-13T02:58:12.435Z,6.87
2018-06-13T03:00:41.829Z,7.23
2018-06-13T03:03:11.167Z,7.13
2018-06-13T03:05:40.557Z,6.83
2018-06-13T03:08:09.897Z,6.67
2018-06-13T03:10:39.260Z,6.93
2018-06-13T03:13:08.612Z,6.70
2018-06-13T03:15:37.740Z,6.47
2018-06-13T03:18:07.137Z,6.93
2018-06-13T03:20:36.488Z,6.50
2018-06-13T03:23:11.238Z,6.90
2018-06-13T03:25:40.601Z,6.50
2018-06-13T03:28:09.951Z,6.43
2018-06-13T03:30:39.056Z,5.93
2018-06-13T03:33:08.417Z,6.73
2018-06-13T03:35:37.784Z,6.87
2018-06-13T03:38:07.119Z,5.87
2018-06-13T03:40:36.481Z,5.63
2018-06-13T03:43:05.857Z,5.80
2018-06-13T03:45:35.221Z,5.50
2018-06-13T03:48:04.745Z,5.60
2018-06-13T03:50:33.857Z,5.50
2018-06-13T03:53:03.209Z,5.80
2018-06-13T03:55:32.568Z,6.07
2018-06-13T03:58:01.954Z,5.80
2018-06-13T04:00:31.292Z,5.47
2018-06-13T04:03:00.645Z,5.10
2018-06-13T04:05:29.984Z,5.10
2018-06-13T04:07:59.342Z,5.20
2018-06-13T04:10:28.685Z,5.93
2018-06-13T04:12:58.052Z,5.33
2018-06-13T04:15:27.120Z,5.70
2018-06-13T04:17:56.429Z,4.63
2018-06-13T04:20:25.793Z,5.20
2018-06-13T04:22:55.088Z,4.93
2018-06-13T04:25:24.384Z,5.43
2018-06-13T04:27:53.693Z,5.10
2018-06-13T04:30:22.988Z,5.25
2018-06-13T04:32:52.290Z,5.30
2018-06-13T04:35:21.611Z,4.83
2018-06-13T04:37:50.913Z,5.23
2018-06-13T04:40:20.212Z,5.40
2018-06-13T04:42:49.517Z,5.73
2018-06-13T04:45:18.833Z,5.50
2018-06-13T04:47:48.141Z,5.23
2018-06-13T04:50:17.446Z,5.37
2018-06-13T04:52:46.532Z,5.90
2018-06-13T04:55:15.841Z,5.03
2018-06-13T04:57:44.919Z,5.87
2018-06-13T05:00:14.211Z,5.70
2018-06-13T05:02:43.549Z,5.43
2018-06-13T05:05:12.829Z,5.80
2018-06-13T05:07:42.150Z,6.33
2018-06-13T05:10:11.460Z,6.27
2018-06-13T05:12:40.783Z,6.40
2018-06-13T05:15:10.189Z,6.20
2018-06-13T05:17:39.553Z,6.40
2018-06-13T05:20:09.051Z,5.50
2018-06-13T05:22:38.152Z,5.97
2018-06-13T05:25:07.522Z,6.07
2018-06-13T05:27:36.876Z,5.77
2018-06-13T05:30:06.305Z,5.27
2018-06-13T05:32:35.644Z,6.17
2018-06-13T05:35:05.005Z,6.57
2018-06-13T05:37:34.356Z,5.70
2018-06-13T05:40:03.748Z,6.08
2018-06-13T05:42:33.100Z,5.27
2018-06-13T05:45:02.453Z,5.63
2018-06-13T05:47:31.544Z,6.03
2018-06-13T05:50:00.644Z,6.03
2018-06-13T05:52:29.752Z,6.23
2018-06-13T05:54:59.152Z,6.00
2018-06-13T05:57:28.494Z,5.87
2018-06-13T05:59:57.865Z,5.93
2018-06-13T06:02:27.233Z,5.80
2018-06-13T06:04:56.605Z,5.90
2018-06-13T06:07:25.968Z,5.70
2018-06-13T06:09:55.341Z,6.00
2018-06-13T06:12:24.439Z,5.67
2018-06-13T06:14:53.774Z,5.63
2018-06-13T06:17:23.093Z,4.90
2018-06-13T06:19:52.403Z,5.23
2018-06-13T06:22:21.712Z,5.90
2018-06-13T06:24:51.021Z,4.90
2018-06-13T06:27:20.316Z,4.87
2018-06-13T06:29:49.628Z,5.47
2018-06-13T06:32:18.932Z,5.25
2018-06-13T06:34:48.227Z,4.90
2018-06-13T06:37:17.528Z,5.10
2018-06-13T06:39:46.832Z,5.20
2018-06-13T06:42:16.144Z,4.47
2018-06-13T06:44:45.436Z,4.37
2018-06-13T06:47:14.491Z,4.17
2018-06-13T06:49:44.492Z,4.60
2018-06-13T06:52:13.736Z,5.10
2018-06-13T06:54:43.080Z,4.27
2018-06-13T06:57:12.381Z,4.60
2018-06-13T06:59:41.696Z,4.10
2018-06-13T07:02:11.001Z,4.23
2018-06-13T07:04:40.300Z,4.47
2018-06-13T07:07:09.611Z,3.90
2018-06-13T07:09:38.922Z,4.17
2018-06-13T07:12:09.288Z,3.70
2018-06-13T07:14:38.601Z,4.27
2018-06-13T07:17:07.975Z,3.87
2018-06-13T07:19:37.046Z,3.70
2018-06-13T07:22:06.362Z,3.67
2018-06-13T07:24:35.710Z,3.60
2018-06-13T07:27:05.160Z,3.90
2018-06-13T07:29:34.460Z,3.47
2018-06-13T07:32:03.753Z,4.20
2018-06-13T07:34:33.045Z,3.47
2018-06-13T07:37:02.357Z,3.50
2018-06-13T07:39:31.674Z,4.40
2018-06-13T07:42:00.732Z,4.70
2018-06-13T07:44:30.044Z,3.80
2018-06-13T07:46:59.369Z,4.03
2018-06-13T07:49:28.423Z,3.77
2018-06-13T07:51:57.739Z,4.30
2018-06-13T07:54:27.036Z,4.23
2018-06-13T07:56:56.353Z,4.00
2018-06-13T07:59:25.641Z,3.97
2018-06-13T08:01:54.952Z,4.47
2018-06-13T08:04:24.269Z,4.58
2018-06-13T08:06:53.324Z,3.90
2018-06-13T08:09:22.633Z,3.90
2018-06-13T08:11:51.953Z,3.83
2018-06-13T08:14:21.317Z,4.73
2018-06-13T08:16:50.683Z,4.60
2018-06-13T08:19:20.048Z,4.23
2018-06-13T08:21:49.411Z,4.13
2018-06-13T08:24:18.768Z,4.65
2018-06-13T08:26:56.956Z,4.60
2018-06-13T08:29:26.308Z,4.93
2018-06-13T08:31:55.676Z,5.17
2018-06-13T08:34:24.796Z,4.70
2018-06-13T08:36:54.168Z,4.87
2018-06-13T08:39:23.255Z,4.90
2018-06-13T08:41:52.626Z,5.33
2018-06-13T08:44:21.992Z,4.83
2018-06-13T08:46:51.348Z,4.27
2018-06-13T08:49:20.711Z,4.47
2018-06-13T08:51:50.068Z,4.90
2018-06-13T08:54:19.180Z,4.78
2018-06-13T08:56:48.529Z,4.30
2018-06-13T08:59:17.879Z,4.47
2018-06-13T09:01:47.249Z,4.47
2018-06-13T09:04:16.604Z,4.67
2018-06-13T09:06:45.977Z,4.40
2018-06-13T09:09:15.344Z,4.50
2018-06-13T09:11:44.715Z,4.70
2018-06-13T09:14:14.083Z,4.70
2018-06-13T09:16:43.183Z,4.73
2018-06-13T09:19:12.563Z,4.80
2018-06-13T09:21:41.925Z,4.50
2018-06-13T09:24:11.289Z,4.47
2018-06-13T09:26:40.665Z,4.97
2018-06-13T09:29:10.056Z,4.87
2018-06-13T09:31:39.409Z,4.03
2018-06-13T09:34:08.919Z,4.60
2018-06-13T09:36:38.281Z,4.43
2018-06-13T09:39:08.573Z,4.03
2018-06-13T09:41:42.974Z,4.33
2018-06-13T09:44:12.337Z,4.50
2018-06-13T09:46:48.916Z,4.37
2018-06-13T09:49:10.797Z,5.17
2018-06-13T09:51:40.156Z,5.33
2018-06-13T09:54:09.341Z,4.03
2018-06-13T09:56:38.692Z,4.10
2018-06-13T09:59:15.218Z,4.17
2018-06-13T10:01:49.215Z,4.03
2018-06-13T10:04:18.584Z,3.77
2018-06-13T10:06:47.928Z,3.67
2018-06-13T10:09:17.308Z,3.77
2018-06-13T10:11:46.407Z,3.70
2018-06-13T10:14:15.469Z,3.53
2018-06-13T10:16:44.793Z,4.00
2018-06-13T10:19:13.851Z,4.17
2018-06-13T10:21:43.145Z,3.70
2018-06-13T10:24:12.446Z,3.83
2018-06-13T10:26:41.783Z,3.50
2018-06-13T10:29:11.042Z,3.77
2018-06-13T10:31:40.346Z,4.57
2018-06-13T10:34:09.649Z,3.63
2018-06-13T10:36:38.948Z,3.67
2018-06-13T10:39:09.118Z,4.07
2018-06-13T10:41:38.433Z,3.27
2018-06-13T10:44:08.984Z,3.83
2018-06-13T10:46:38.282Z,3.90
2018-06-13T10:49:07.658Z,3.83
2018-06-13T10:51:36.944Z,3.67
2018-06-13T10:54:05.995Z,3.83
2018-06-13T10:56:35.301Z,3.53
2018-06-13T10:59:04.916Z,4.03
2018-06-13T11:01:34.226Z,3.93
2018-06-13T11:04:03.525Z,3.20
2018-06-13T11:06:32.820Z,3.97
2018-06-13T11:09:02.137Z,4.33
2018-06-13T11:11:31.196Z,3.50
2018-06-13T11:14:00.501Z,3.70
2018-06-13T11:16:29.811Z,3.93
2018-06-13T11:18:59.104Z,3.50
2018-06-13T11:21:28.401Z,3.60
2018-06-13T11:23:57.692Z,3.30
2018-06-13T11:26:26.993Z,4.12
2018-06-13T11:28:56.279Z,4.27
2018-06-13T11:31:25.627Z,4.20
2018-06-13T11:33:54.880Z,3.87
2018-06-13T11:36:24.201Z,4.40
2018-06-13T11:38:53.492Z,4.10
2018-06-13T11:41:22.813Z,4.20
2018-06-13T11:43:52.288Z,4.07
2018-06-13T11:46:21.593Z,3.50
2018-06-13T11:48:50.883Z,3.90
2018-06-13T11:51:20.188Z,4.00
2018-06-13T11:53:49.477Z,3.50
2018-06-13T11:56:18.792Z,3.27
2018-06-13T11:58:48.081Z,3.73
2018-06-13T12:01:17.384Z,3.23
2018-06-13T12:03:46.741Z,3.10
2018-06-13T12:06:16.114Z,3.92
2018-06-13T12:08:45.473Z,3.53
2018-06-13T12:11:14.897Z,3.17
2018-06-13T12:13:44.258Z,2.80
2018-06-13T12:16:13.611Z,3.00
2018-06-13T12:18:43.060Z,2.97
2018-06-13T12:21:12.417Z,2.70
2018-06-13T12:23:41.777Z,2.63
2018-06-13T12:26:11.173Z,2.70
2018-06-13T12:28:40.566Z,2.20
2018-06-13T12:31:09.893Z,2.67
2018-06-13T12:33:39.252Z,2.67
2018-06-13T12:36:09.075Z,2.42
2018-06-13T12:38:38.430Z,2.43
2018-06-13T12:41:07.775Z,2.27
2018-06-13T12:43:37.140Z,2.40
2018-06-13T12:46:06.548Z,2.10
2018-06-13T12:48:35.916Z,2.70
2018-06-13T12:51:05.296Z,2.70
2018-06-13T12:53:34.681Z,3.07
2018-06-13T12:56:04.144Z,2.67
2018-06-13T12:58:33.508Z,2.70
2018-06-13T13:01:02.864Z,3.10
2018-06-13T13:03:32.233Z,3.03
2018-06-13T13:06:01.589Z,2.50
2018-06-13T13:08:30.930Z,3.30
2018-06-13T13:11:00.306Z,2.90
2018-06-13T13:13:29.352Z,3.50
2018-06-13T13:15:58.654Z,3.10
2018-06-13T13:18:27.956Z,3.27
2018-06-13T13:20:57.244Z,3.00
2018-06-13T13:23:26.553Z,3.37
2018-06-13T13:25:55.859Z,3.30
2018-06-13T13:28:25.149Z,3.30
2018-06-13T13:30:54.442Z,3.60
2018-06-13T13:33:23.764Z,3.37
2018-06-13T13:35:53.060Z,3.70
2018-06-13T13:38:22.369Z,3.33
2018-06-13T13:40:51.423Z,3.60
2018-06-13T13:43:20.732Z,3.40
2018-06-13T13:45:50.091Z,3.27
2018-06-13T13:48:19.337Z,3.12
2018-06-13T13:50:48.628Z,3.73
2018-06-13T13:53:18.089Z,2.90
2018-06-13T13:55:47.396Z,2.90
2018-06-13T13:58:16.713Z,2.83
2018-06-13T14:00:46.025Z,3.20
2018-06-13T14:03:15.344Z,3.07
2018-06-13T14:05:44.664Z,3.40
2018-06-13T14:08:13.964Z,3.47
2018-06-13T14:10:43.280Z,3.10
2018-06-13T14:13:12.372Z,3.50
2018-06-13T14:15:41.440Z,3.40
2018-06-13T14:18:10.750Z,3.50
2018-06-13T14:20:40.068Z,3.20
2018-06-13T14:23:09.141Z,3.33
2018-06-13T14:25:38.451Z,3.57
2018-06-13T14:28:08.553Z,3.42
2018-06-13T14:30:37.877Z,3.80
2018-06-13T14:33:07.200Z,3.33
2018-06-13T14:35:36.525Z,3.37
2018-06-13T14:38:05.861Z,3.10
2018-06-13T14:40:35.177Z,2.90
2018-06-13T14:43:04.292Z,2.67
2018-06-13T14:45:33.612Z,3.17
2018-06-13T14:48:02.975Z,2.90
2018-06-13T14:50:32.071Z,3.33
2018-06-13T14:53:01.368Z,2.90
2018-06-13T14:55:34.616Z,3.10
2018-06-13T14:58:03.971Z,2.70
2018-06-13T15:00:33.304Z,3.70
2018-06-13T15:03:02.627Z,2.87
2018-06-13T15:05:31.929Z,2.90
2018-06-13T15:08:01.302Z,3.10
2018-06-13T15:10:30.528Z,2.90
2018-06-13T15:12:59.885Z,2.60
2018-06-13T15:15:29.178Z,2.93
2018-06-13T15:17:58.484Z,2.60
2018-06-13T15:20:27.797Z,2.53
2018-06-13T15:22:57.095Z,2.70
2018-06-13T15:25:26.433Z,2.77
2018-06-13T15:27:55.747Z,2.52
2018-06-13T15:30:25.119Z,2.42
2018-06-13T15:32:54.432Z,2.60
2018-06-13T15:35:23.751Z,2.33
2018-06-13T15:37:53.055Z,2.30
2018-06-13T15:40:22.550Z,2.22
2018-06-13T15:42:51.848Z,2.40
2018-06-13T15:45:21.173Z,2.20
2018-06-13T15:47:51.313Z,2.40
2018-06-13T15:50:20.673Z,2.58
2018-06-13T15:52:49.951Z,2.33
2018-06-13T15:55:19.282Z,2.30
2018-06-13T15:57:48.581Z,2.40
2018-06-13T16:00:17.886Z,1.92
2018-06-13T16:02:46.964Z,2.07
2018-06-13T16:05:16.257Z,2.13
2018-06-13T16:07:45.580Z,2.03
2018-06-13T16:10:14.660Z,1.90
2018-06-13T16:12:43.995Z,1.73
2018-06-13T16:15:13.321Z,1.87
2018-06-13T16:17:42.639Z,1.83
2018-06-13T16:20:11.931Z,1.90
2018-06-13T16:22:41.264Z,1.90
2018-06-13T16:25:10.564Z,1.77
2018-06-13T16:27:39.876Z,1.97
2018-06-13T16:30:09.184Z,1.50
2018-06-13T16:32:38.488Z,2.23
2018-06-13T16:35:07.798Z,1.90
2018-06-13T16:37:37.124Z,1.70
2018-06-13T16:40:06.481Z,1.80
2018-06-13T16:42:35.565Z,2.00
2018-06-13T16:45:05.021Z,1.97
2018-06-13T16:47:34.336Z,2.10
2018-06-13T16:50:19.533Z,1.63
2018-06-13T16:53:06.467Z,1.70
2018-06-13T16:55:35.549Z,1.90
2018-06-13T16:58:04.893Z,1.90
2018-06-13T17:00:34.206Z,1.60
2018-06-13T17:03:03.529Z,1.77
2018-06-13T17:05:32.843Z,1.80
2018-06-13T17:08:02.153Z,1.93
2018-06-13T17:10:31.449Z,1.77
2018-06-13T17:13:00.757Z,1.40
2018-06-13T17:15:30.190Z,1.53
2018-06-13T17:17:59.508Z,1.60
2018-06-13T17:20:28.868Z,1.63
2018-06-13T17:22:57.989Z,1.70
2018-06-13T17:25:27.348Z,1.80
2018-06-13T17:27:56.721Z,2.00
2018-06-13T17:30:26.060Z,1.75
2018-06-13T17:32:55.177Z,1.90
2018-06-13T17:35:24.532Z,1.83
2018-06-13T17:37:54.005Z,1.80
2018-06-13T17:40:23.385Z,1.52
2018-06-13T17:42:52.809Z,1.50
2018-06-13T17:45:22.183Z,2.00
2018-06-13T17:47:51.554Z,1.70
2018-06-13T17:50:20.913Z,1.77
2018-06-13T17:52:50.296Z,1.83
2018-06-13T17:55:19.681Z,1.87
2018-06-13T17:57:48.802Z,1.60
2018-06-13T18:00:18.254Z,1.80
2018-06-13T18:02:47.641Z,1.90
2018-06-13T18:05:17.026Z,2.00
2018-06-13T18:07:46.397Z,1.87
2018-06-13T18:10:15.585Z,1.62
2018-06-13T18:12:44.964Z,2.10
2018-06-13T18:15:14.294Z,1.80
2018-06-13T18:17:43.631Z,1.53
2018-06-13T18:20:12.945Z,1.70
2018-06-13T18:22:42.263Z,1.67
2018-06-13T18:25:11.583Z,1.77
2018-06-13T18:27:40.660Z,1.60
2018-06-13T18:30:09.981Z,1.67
2018-06-13T18:32:39.064Z,1.80
2018-06-13T18:35:08.369Z,1.93
2018-06-13T18:37:37.427Z,2.17
2018-06-13T18:40:06.731Z,1.63
2018-06-13T18:42:36.027Z,1.90
2018-06-13T18:45:05.348Z,1.70
2018-06-13T18:47:34.869Z,1.87
2018-06-13T18:50:04.177Z,1.90
2018-06-13T18:52:33.477Z,1.63
2018-06-13T18:55:02.707Z,2.40
2018-06-13T18:57:32.071Z,2.30
2018-06-13T19:00:01.331Z,1.70
2018-06-13T19:02:30.636Z,1.83
2018-06-13T19:04:59.953Z,1.97
2018-06-13T19:07:29.277Z,2.00
2018-06-13T19:09:58.598Z,2.00
2018-06-13T19:12:28.084Z,2.00
2018-06-13T19:14:57.426Z,2.00
2018-06-13T19:17:26.724Z,2.00
2018-06-13T19:19:56.035Z,1.73
2018-06-13T19:22:25.320Z,1.87
2018-06-13T19:24:54.640Z,2.13
2018-06-13T19:27:23.930Z,2.03
2018-06-13T19:29:53.239Z,1.70
2018-06-13T19:32:22.546Z,1.80
2018-06-13T19:34:51.863Z,1.67
2018-06-13T19:37:20.928Z,1.90
2018-06-13T19:39:50.243Z,1.90
2018-06-13T19:42:19.540Z,1.83
2018-06-13T19:44:48.868Z,1.90
2018-06-13T19:47:23.278Z,2.00
2018-06-13T19:49:52.580Z,2.00
2018-06-13T19:52:25.979Z,1.87
2018-06-13T19:55:00.455Z,1.90
2018-06-13T19:57:29.765Z,1.93
2018-06-13T19:59:59.070Z,2.00
2018-06-13T20:02:32.444Z,1.80
2018-06-13T20:05:07.041Z,1.87
2018-06-13T20:07:36.359Z,2.00
2018-06-13T20:10:05.806Z,2.00
2018-06-13T20:12:44.206Z,1.93
2018-06-13T20:15:18.813Z,2.03
2018-06-13T20:17:53.368Z,2.03
2018-06-13T20:20:22.720Z,2.20
2018-06-13T20:22:52.089Z,2.40
2018-06-13T20:25:26.599Z,1.93
2018-06-13T20:28:01.357Z,2.40
2018-06-13T20:30:36.074Z,2.20
2018-06-13T20:33:05.440Z,2.50
2018-06-13T20:35:34.818Z,2.57
2018-06-13T20:38:04.201Z,2.10
2018-06-13T20:40:33.574Z,2.50
2018-06-13T20:43:02.688Z,2.50
2018-06-13T20:45:32.215Z,2.77
2018-06-13T20:48:01.594Z,2.50
2018-06-13T20:50:30.982Z,2.50
2018-06-13T20:53:00.353Z,2.40
2018-06-13T20:55:29.708Z,2.60
2018-06-13T20:57:59.100Z,2.57
2018-06-13T21:00:28.472Z,2.33
2018-06-13T21:02:57.835Z,2.97
2018-06-13T21:05:27.189Z,2.37
2018-06-13T21:07:56.320Z,2.60
2018-06-13T21:10:25.676Z,2.27
2018-06-13T21:12:55.033Z,2.50
2018-06-13T21:15:24.480Z,2.50
2018-06-13T21:17:53.640Z,2.43
2018-06-13T21:20:23.049Z,2.22
2018-06-13T21:22:52.384Z,2.40
2018-06-13T21:25:21.493Z,2.83
2018-06-13T21:27:50.856Z,2.17
2018-06-13T21:30:20.218Z,2.30
2018-06-13T21:32:49.612Z,2.00
2018-06-13T21:35:19.024Z,2.10
2018-06-13T21:37:48.366Z,2.03
2018-06-13T21:40:17.817Z,2.20
2018-06-13T21:42:47.141Z,2.50
2018-06-13T21:45:16.501Z,2.37
2018-06-13T21:47:45.868Z,2.23
2018-06-13T21:50:15.229Z,2.50
2018-06-13T21:52:44.633Z,2.60
2018-06-13T21:55:13.990Z,2.30
2018-06-13T21:57:43.098Z,2.43
2018-06-13T22:00:13.000Z,2.60
2018-06-13T22:02:42.120Z,2.60
2018-06-13T22:05:11.507Z,2.90
2018-06-13T22:07:40.892Z,2.40
2018-06-13T22:10:10.265Z,2.87
2018-06-13T22:12:39.652Z,2.70
2018-06-13T22:15:15.165Z,2.50
2018-06-13T22:17:44.552Z,2.97
2018-06-13T22:20:13.672Z,2.90
2018-06-13T22:22:43.057Z,2.73
2018-06-13T22:25:12.452Z,3.10
2018-06-13T22:27:41.799Z,3.57
2018-06-13T22:30:11.355Z,2.75
2018-06-13T22:32:40.715Z,3.47
2018-06-13T22:35:10.095Z,3.40
2018-06-13T22:37:39.468Z,3.10
2018-06-13T22:40:08.856Z,2.97
2018-06-13T22:42:38.237Z,3.30
2018-06-13T22:45:07.610Z,2.60
2018-06-13T22:47:36.978Z,3.40
2018-06-13T22:50:06.371Z,3.17
2018-06-13T22:52:35.485Z,3.53
2018-06-13T22:55:04.885Z,2.87
2018-06-13T22:57:34.269Z,3.03
2018-06-13T23:00:03.413Z,2.87
2018-06-13T23:02:32.764Z,3.37
2018-06-13T23:05:02.144Z,2.70
2018-06-13T23:07:31.507Z,3.03
2018-06-13T23:10:00.892Z,3.23
2018-06-13T23:12:30.250Z,2.80
2018-06-13T23:14:59.573Z,3.20
2018-06-13T23:17:28.645Z,3.40
2018-06-13T23:19:57.945Z,3.20
2018-06-13T23:22:27.282Z,3.13
2018-06-13T23:24:56.604Z,3.40
2018-06-13T23:27:25.939Z,3.10
2018-06-13T23:29:55.252Z,2.97
2018-06-13T23:32:24.567Z,3.27
2018-06-13T23:34:53.648Z,3.40
2018-06-13T23:37:22.964Z,3.20
2018-06-13T23:39:52.049Z,4.20
2018-06-13T23:42:21.367Z,3.43
2018-06-13T23:44:50.710Z,3.45
2018-06-13T23:47:20.008Z,3.53
2018-06-13T23:49:49.333Z,3.47
2018-06-13T23:52:18.673Z,3.80
2018-06-13T23:54:47.975Z,3.27
2018-06-13T23:57:17.317Z,3.60
2018-06-13T23:59:46.641Z,3.60
